createdAt,value
2023-05-01T00:00:24.651Z,63.2894
2023-05-01T00:01:26.473Z,63.3717
2023-05-01T00:02:28.390Z,63.4259
2023-05-01T00:03:30.556Z,63.5020
2023-05-01T00:04:30.544Z,63.5673
2023-05-01T00:05:32.420Z,63.6158
2023-05-01T00:06:34.322Z,63.6958
2023-05-01T00:07:36.210Z,63.7451
2023-05-01T00:08:38.090Z,63.7646
2023-05-01T00:09:39.878Z,63.7818
2023-05-01T00:10:41.764Z,63.8018
2023-05-01T00:11:43.620Z,63.8190
2023-05-01T00:12:45.468Z,63.8361
2023-05-01T00:13:47.339Z,63.8754
2023-05-01T00:14:49.188Z,63.9344
2023-05-01T00:15:51.049Z,63.9881
2023-05-01T00:16:53.005Z,64.0115
2023-05-01T00:17:55.198Z,64.0331
2023-05-01T00:18:57.031Z,64.0741
2023-05-01T00:19:59.254Z,64.0937
2023-05-01T00:21:01.454Z,64.1705
2023-05-01T00:22:03.278Z,64.2732
2023-05-01T00:23:05.172Z,64.2989
2023-05-01T00:24:07.086Z,64.2962
2023-05-01T00:25:08.794Z,64.2783
2023-05-01T00:26:10.636Z,64.2812
2023-05-01T00:27:12.368Z,64.3150
2023-05-01T00:28:14.171Z,64.3198
2023-05-01T00:29:16.014Z,64.3431
2023-05-01T00:30:17.868Z,64.3681
2023-05-01T00:31:19.658Z,64.3921
2023-05-01T00:32:21.670Z,64.4662
2023-05-01T00:33:23.533Z,64.4522
2023-05-01T00:34:25.366Z,64.5182
2023-05-01T00:35:27.188Z,64.5269
2023-05-01T00:36:28.958Z,64.5171
2023-05-01T00:37:30.859Z,64.6436
2023-05-01T00:38:32.760Z,64.7303
2023-05-01T00:39:34.735Z,64.9092
2023-05-01T00:40:36.610Z,64.9489
2023-05-01T00:41:38.515Z,64.9683
2023-05-01T00:42:40.426Z,64.9532
2023-05-01T00:43:42.297Z,64.9510
2023-05-01T00:44:44.258Z,64.9690
2023-05-01T00:45:46.251Z,64.9824
2023-05-01T00:46:48.297Z,65.0081
2023-05-01T00:47:50.303Z,65.0350
2023-05-01T00:48:52.287Z,65.0633
2023-05-01T00:49:54.552Z,65.0836
2023-05-01T00:50:54.611Z,65.0909
2023-05-01T00:51:56.476Z,65.0657
2023-05-01T00:52:58.427Z,65.0443
2023-05-01T00:54:00.455Z,65.0562
2023-05-01T00:55:02.364Z,65.0865
2023-05-01T00:56:04.374Z,65.1133
2023-05-01T00:57:06.235Z,65.1252
2023-05-01T00:58:08.133Z,65.1277
2023-05-01T00:59:10.012Z,65.1335
2023-05-01T01:00:11.958Z,65.1556
2023-05-01T01:01:13.847Z,65.1790
2023-05-01T01:02:15.808Z,65.1990
2023-05-01T01:03:17.785Z,65.2073
2023-05-01T01:04:19.661Z,65.2182
2023-05-01T01:05:21.711Z,65.2210
2023-05-01T01:06:23.680Z,65.2381
2023-05-01T01:07:25.543Z,65.2723
2023-05-01T01:08:27.500Z,65.3580
2023-05-01T01:09:29.393Z,65.5250
2023-05-01T01:10:31.309Z,65.6177
2023-05-01T01:11:33.254Z,65.6756
2023-05-01T01:12:35.203Z,65.7192
2023-05-01T01:13:37.073Z,65.7439
2023-05-01T01:14:38.954Z,65.7760
2023-05-01T01:15:40.896Z,65.8317
2023-05-01T01:16:42.906Z,65.9211
2023-05-01T01:17:44.874Z,66.0260
2023-05-01T01:18:46.987Z,66.1335
2023-05-01T01:19:48.904Z,66.2200
2023-05-01T01:20:50.957Z,66.2976
2023-05-01T01:21:53.122Z,66.3861
2023-05-01T01:22:55.127Z,66.4476
2023-05-01T01:23:57.027Z,66.5012
2023-05-01T01:24:58.957Z,66.5666
2023-05-01T01:26:00.921Z,66.6478
2023-05-01T01:27:02.885Z,66.7237
2023-05-01T01:28:04.806Z,66.8100
2023-05-01T01:29:06.772Z,66.8907
2023-05-01T01:30:08.701Z,66.9668
2023-05-01T01:31:10.604Z,67.1092
2023-05-01T01:32:12.687Z,67.2860
2023-05-01T01:33:14.612Z,67.4260
2023-05-01T01:34:16.508Z,67.5260
2023-05-01T01:35:18.320Z,67.6005
2023-05-01T01:36:20.309Z,67.6635
2023-05-01T01:37:22.271Z,67.7177
2023-05-01T01:38:24.120Z,67.7890
2023-05-01T01:39:26.050Z,67.8778
2023-05-01T01:40:28.030Z,67.9497
2023-05-01T01:41:30.192Z,68.0148
2023-05-01T01:42:32.203Z,68.0779
2023-05-01T01:43:34.231Z,68.1431
2023-05-01T01:44:36.174Z,68.2224
2023-05-01T01:45:36.441Z,68.3161
2023-05-01T01:46:38.466Z,68.4082
2023-05-01T01:47:40.672Z,68.5533
2023-05-01T01:48:41.304Z,68.8107
2023-05-01T01:49:43.252Z,69.1702
2023-05-01T01:50:45.237Z,69.4493
2023-05-01T01:51:47.249Z,69.6138
2023-05-01T01:52:49.186Z,69.7426
2023-05-01T01:53:50.984Z,69.8879
2023-05-01T01:54:52.814Z,70.0592
2023-05-01T01:55:54.886Z,70.2811
2023-05-01T01:56:56.953Z,70.5899
2023-05-01T01:57:58.970Z,70.9935
2023-05-01T01:59:01.046Z,71.3820
2023-05-01T02:00:03.069Z,71.5956
2023-05-01T02:01:05.002Z,71.6744
2023-05-01T02:02:07.149Z,71.7291
2023-05-01T02:03:09.292Z,71.7707
2023-05-01T02:04:11.486Z,71.8183
2023-05-01T02:05:13.580Z,71.8643
2023-05-01T02:06:15.507Z,71.9079
2023-05-01T02:07:17.652Z,71.9508
2023-05-01T02:08:19.745Z,71.9919
2023-05-01T02:09:21.839Z,72.0216
2023-05-01T02:10:23.817Z,72.0574
2023-05-01T02:11:25.806Z,72.0752
2023-05-01T02:12:27.880Z,72.0812
2023-05-01T02:13:30.037Z,72.0989
2023-05-01T02:14:32.060Z,72.1007
2023-05-01T02:15:34.032Z,72.0966
2023-05-01T02:16:36.148Z,72.1001
2023-05-01T02:17:38.182Z,72.0964
2023-05-01T02:18:40.185Z,72.1028
2023-05-01T02:19:42.178Z,72.1118
2023-05-01T02:20:44.094Z,72.1252
2023-05-01T02:21:46.057Z,72.1296
2023-05-01T02:22:47.960Z,72.1392
2023-05-01T02:23:49.986Z,72.2936
2023-05-01T02:24:52.089Z,72.4719
2023-05-01T02:25:54.108Z,72.5516
2023-05-01T02:26:56.184Z,72.5808
2023-05-01T02:27:58.129Z,72.6106
2023-05-01T02:29:00.017Z,72.6235
2023-05-01T02:30:02.144Z,72.6831
2023-05-01T02:31:04.081Z,72.7920
2023-05-01T02:32:06.130Z,72.9414
2023-05-01T02:33:08.290Z,73.2968
2023-05-01T02:34:10.379Z,74.0045
2023-05-01T02:35:12.358Z,74.4970
2023-05-01T02:36:14.343Z,74.8305
2023-05-01T02:37:16.324Z,75.3060
2023-05-01T02:38:18.181Z,75.6465
2023-05-01T02:39:20.035Z,75.8353
2023-05-01T02:40:21.900Z,75.9015
2023-05-01T02:41:23.652Z,75.9430
2023-05-01T02:42:25.582Z,76.0059
2023-05-01T02:43:27.385Z,76.0969
2023-05-01T02:44:29.211Z,76.2191
2023-05-01T02:45:31.099Z,76.2780
2023-05-01T02:46:33.044Z,76.3498
2023-05-01T02:47:35.138Z,76.4756
2023-05-01T02:48:37.132Z,76.5878
2023-05-01T02:49:38.982Z,76.8163
2023-05-01T02:50:40.848Z,77.1802
2023-05-01T02:51:42.861Z,77.3986
2023-05-01T02:52:44.695Z,77.5675
2023-05-01T02:53:46.636Z,77.6764
2023-05-01T02:54:48.585Z,77.7400
2023-05-01T02:55:50.541Z,77.7817
2023-05-01T02:56:52.622Z,77.8019
2023-05-01T02:57:54.632Z,77.8127
2023-05-01T02:58:56.611Z,77.8406
2023-05-01T02:59:58.590Z,77.8714
2023-05-01T03:01:00.608Z,77.8967
2023-05-01T03:02:02.442Z,77.9160
2023-05-01T03:03:04.532Z,77.9175
2023-05-01T03:04:06.507Z,77.9059
2023-05-01T03:05:08.529Z,77.8948
2023-05-01T03:06:10.626Z,77.8877
2023-05-01T03:07:12.638Z,77.8755
2023-05-01T03:08:14.688Z,77.8688
2023-05-01T03:09:17.087Z,77.8488
2023-05-01T03:10:19.249Z,77.8127
2023-05-01T03:11:21.339Z,77.7822
2023-05-01T03:12:23.396Z,77.7632
2023-05-01T03:13:25.386Z,77.7434
2023-05-01T03:14:27.703Z,77.7333
2023-05-01T03:15:29.643Z,77.7261
2023-05-01T03:16:32.070Z,77.7305
2023-05-01T03:17:34.614Z,77.7336
2023-05-01T03:18:36.770Z,77.7334
2023-05-01T03:19:38.730Z,77.7233
2023-05-01T03:20:40.976Z,77.7209
2023-05-01T03:21:43.069Z,77.7116
2023-05-01T03:22:45.139Z,77.7063
2023-05-01T03:23:47.214Z,77.6846
2023-05-01T03:24:49.277Z,77.6866
2023-05-01T03:25:51.366Z,77.6857
2023-05-01T03:26:53.353Z,77.6930
2023-05-01T03:27:55.567Z,77.7047
2023-05-01T03:28:57.539Z,77.7101
2023-05-01T03:29:59.574Z,77.7170
2023-05-01T03:31:01.598Z,77.7206
2023-05-01T03:32:03.583Z,77.7318
2023-05-01T03:33:05.522Z,77.7365
2023-05-01T03:34:07.446Z,77.7392
2023-05-01T03:35:09.688Z,77.7459
2023-05-01T03:36:11.725Z,77.7541
2023-05-01T03:37:14.001Z,77.7824
2023-05-01T03:38:16.046Z,77.8143
2023-05-01T03:39:18.256Z,77.8871
2023-05-01T03:40:20.348Z,77.9290
2023-05-01T03:41:20.799Z,77.9636
2023-05-01T03:42:22.801Z,77.9866
2023-05-01T03:43:24.795Z,78.0113
2023-05-01T03:44:26.875Z,78.0614
2023-05-01T03:45:29.015Z,78.1050
2023-05-01T03:46:31.159Z,78.1292
2023-05-01T03:47:33.357Z,78.1656
2023-05-01T03:48:35.431Z,78.1935
2023-05-01T03:49:37.467Z,78.2099
2023-05-01T03:50:39.546Z,78.2268
2023-05-01T03:51:41.632Z,78.2467
2023-05-01T03:52:43.659Z,78.2627
2023-05-01T03:53:45.914Z,78.2829
2023-05-01T03:54:48.108Z,78.3055
2023-05-01T03:55:50.335Z,78.3316
2023-05-01T03:56:52.464Z,78.3693
2023-05-01T03:57:54.419Z,78.4012
2023-05-01T03:58:56.499Z,78.4314
2023-05-01T03:59:58.861Z,78.4808
2023-05-01T04:01:01.174Z,78.5580
2023-05-01T04:02:03.334Z,78.6151
2023-05-01T04:03:05.563Z,78.6690
2023-05-01T04:04:05.744Z,78.6961
2023-05-01T04:05:07.980Z,78.7089
2023-05-01T04:06:10.021Z,78.7238
2023-05-01T04:07:11.918Z,78.7443
2023-05-01T04:08:13.923Z,78.7611
2023-05-01T04:09:16.054Z,78.7809
2023-05-01T04:10:18.143Z,78.8095
2023-05-01T04:11:20.287Z,78.8277
2023-05-01T04:12:22.217Z,78.8429
2023-05-01T04:13:24.178Z,78.8524
2023-05-01T04:14:26.302Z,78.8565
2023-05-01T04:15:28.382Z,78.8540
2023-05-01T04:16:30.606Z,78.8530
2023-05-01T04:17:32.895Z,78.8487
2023-05-01T04:18:35.077Z,78.8382
2023-05-01T04:19:37.008Z,78.8188
2023-05-01T04:20:39.004Z,78.8047
2023-05-01T04:21:41.065Z,78.7906
2023-05-01T04:22:43.012Z,78.7777
2023-05-01T04:23:45.074Z,78.7667
2023-05-01T04:24:46.980Z,78.7550
2023-05-01T04:25:49.121Z,78.7474
2023-05-01T04:26:51.122Z,78.7482
2023-05-01T04:27:53.025Z,78.7539
2023-05-01T04:28:54.992Z,78.7617
2023-05-01T04:29:57.564Z,78.7660
2023-05-01T04:30:58.023Z,78.7735
2023-05-01T04:32:00.260Z,78.7761
2023-05-01T04:33:02.528Z,78.7858
2023-05-01T04:34:04.518Z,78.7838
2023-05-01T04:35:06.506Z,78.7811
2023-05-01T04:36:08.576Z,78.7788
2023-05-01T04:37:10.759Z,78.7835
2023-05-01T04:38:12.796Z,78.7860
2023-05-01T04:39:15.004Z,78.7787
2023-05-01T04:40:17.087Z,78.7840
2023-05-01T04:41:19.368Z,78.7899
2023-05-01T04:42:21.497Z,78.7965
2023-05-01T04:43:23.769Z,78.8008
2023-05-01T04:44:25.870Z,78.7998
2023-05-01T04:45:27.764Z,78.7968
2023-05-01T04:46:30.133Z,78.7904
2023-05-01T04:47:32.445Z,78.7836
2023-05-01T04:48:34.496Z,78.7725
2023-05-01T04:49:36.422Z,78.7697
2023-05-01T04:50:38.719Z,78.7646
2023-05-01T04:51:41.105Z,78.7571
2023-05-01T04:52:43.425Z,78.7525
2023-05-01T04:53:45.445Z,78.7508
2023-05-01T04:54:47.762Z,78.7543
2023-05-01T04:55:49.943Z,78.7480
2023-05-01T04:56:52.255Z,78.7515
2023-05-01T04:57:54.517Z,78.7727
2023-05-01T04:58:56.712Z,78.7999
2023-05-01T04:59:58.932Z,78.8283
2023-05-01T05:00:58.958Z,78.8518
2023-05-01T05:02:01.236Z,78.8729
2023-05-01T05:03:03.883Z,78.8985
2023-05-01T05:04:03.899Z,78.9143
2023-05-01T05:05:03.815Z,78.9310
2023-05-01T05:06:05.967Z,78.9483
2023-05-01T05:07:08.283Z,78.9642
2023-05-01T05:08:10.729Z,78.9816
2023-05-01T05:09:13.171Z,79.0075
2023-05-01T05:10:15.438Z,79.0286
2023-05-01T05:11:17.800Z,79.0463
2023-05-01T05:12:19.977Z,79.0585
2023-05-01T05:13:22.238Z,79.0713
2023-05-01T05:14:24.401Z,79.0859
2023-05-01T05:15:26.562Z,79.1043
2023-05-01T05:16:28.893Z,79.1211
2023-05-01T05:17:31.134Z,79.1420
2023-05-01T05:18:33.449Z,79.1632
2023-05-01T05:19:35.690Z,79.1787
2023-05-01T05:20:37.834Z,79.2037
2023-05-01T05:21:40.024Z,79.2271
2023-05-01T05:22:42.114Z,79.2394
2023-05-01T05:23:44.218Z,79.2505
2023-05-01T05:24:46.396Z,79.2573
2023-05-01T05:25:48.528Z,79.2704
2023-05-01T05:26:50.740Z,79.2791
2023-05-01T05:27:52.964Z,79.2887
2023-05-01T05:28:55.126Z,79.2945
2023-05-01T05:29:55.863Z,79.3039
2023-05-01T05:30:55.894Z,79.3174
2023-05-01T05:31:58.100Z,79.3211
2023-05-01T05:33:00.356Z,79.3245
2023-05-01T05:34:02.433Z,79.3305
2023-05-01T05:35:04.494Z,79.3416
2023-05-01T05:36:06.530Z,79.3484
2023-05-01T05:37:08.468Z,79.3535
2023-05-01T05:38:10.741Z,79.3739
2023-05-01T05:39:12.980Z,79.3861
2023-05-01T05:40:14.969Z,79.3870
2023-05-01T05:41:17.020Z,79.3906
2023-05-01T05:42:19.233Z,79.3973
2023-05-01T05:43:21.259Z,79.4012
2023-05-01T05:44:23.408Z,79.4037
2023-05-01T05:45:25.520Z,79.4018
2023-05-01T05:46:27.577Z,79.4049
2023-05-01T05:47:29.691Z,79.4025
2023-05-01T05:48:31.694Z,79.4028
2023-05-01T05:49:33.947Z,79.4022
2023-05-01T05:50:35.985Z,79.4017
2023-05-01T05:51:38.120Z,79.3997
2023-05-01T05:52:40.083Z,79.3876
2023-05-01T05:53:42.071Z,79.3727
2023-05-01T05:54:44.020Z,79.3668
2023-05-01T05:55:46.007Z,79.3646
2023-05-01T05:56:47.977Z,79.3672
2023-05-01T05:57:49.956Z,79.3749
2023-05-01T05:58:51.862Z,79.3947
2023-05-01T05:59:54.092Z,79.4334
2023-05-01T06:00:56.340Z,79.4736
2023-05-01T06:01:58.308Z,79.5131
2023-05-01T06:03:00.406Z,79.5464
2023-05-01T06:04:02.732Z,79.5673
2023-05-01T06:05:04.779Z,79.5785
2023-05-01T06:06:07.364Z,79.5839
2023-05-01T06:07:07.034Z,79.5847
2023-05-01T06:08:09.009Z,79.5953
2023-05-01T06:09:11.076Z,79.6052
2023-05-01T06:10:13.062Z,79.6116
2023-05-01T06:11:13.575Z,79.6112
2023-05-01T06:12:15.651Z,79.6075
2023-05-01T06:13:16.209Z,79.6031
2023-05-01T06:14:18.154Z,79.6058
2023-05-01T06:15:18.566Z,79.6148
2023-05-01T06:16:20.679Z,79.6290
2023-05-01T06:17:22.757Z,79.6516
2023-05-01T06:18:24.815Z,79.6649
2023-05-01T06:19:26.789Z,79.6909
2023-05-01T06:20:28.803Z,79.7245
2023-05-01T06:21:30.757Z,79.7405
2023-05-01T06:22:32.729Z,79.7645
2023-05-01T06:23:34.796Z,79.7787
2023-05-01T06:24:36.837Z,79.8016
2023-05-01T06:25:38.712Z,79.8254
2023-05-01T06:26:40.703Z,79.8445
2023-05-01T06:27:42.693Z,79.8660
2023-05-01T06:28:44.702Z,79.8843
2023-05-01T06:29:46.618Z,79.8874
2023-05-01T06:30:48.576Z,79.8966
2023-05-01T06:31:50.586Z,79.8996
2023-05-01T06:32:52.818Z,79.9089
2023-05-01T06:33:52.996Z,79.9215
2023-05-01T06:34:55.015Z,79.9262
2023-05-01T06:35:56.929Z,79.9261
2023-05-01T06:36:58.844Z,79.9228
2023-05-01T06:38:00.723Z,79.9210
2023-05-01T06:39:02.603Z,79.9159
2023-05-01T06:40:04.605Z,79.9196
2023-05-01T06:41:06.536Z,79.9296
2023-05-01T06:42:08.466Z,79.9353
2023-05-01T06:43:10.444Z,79.9375
2023-05-01T06:44:12.417Z,79.9397
2023-05-01T06:45:14.370Z,79.9526
2023-05-01T06:46:16.322Z,79.9892
2023-05-01T06:47:18.195Z,80.0449
2023-05-01T06:48:20.186Z,80.0941
2023-05-01T06:49:22.120Z,80.1183
2023-05-01T06:50:24.042Z,80.1406
2023-05-01T06:51:25.959Z,80.1518
2023-05-01T06:52:27.844Z,80.1682
2023-05-01T06:53:30.015Z,80.1795
2023-05-01T06:54:32.009Z,80.2000
2023-05-01T06:55:35.865Z,80.2089
2023-05-01T06:56:35.524Z,80.2225
2023-05-01T06:57:37.597Z,80.2393
2023-05-01T06:58:39.504Z,80.2596
2023-05-01T06:59:41.415Z,80.2821
2023-05-01T07:00:43.309Z,80.2855
2023-05-01T07:01:45.263Z,80.2973
2023-05-01T07:02:47.281Z,80.2984
2023-05-01T07:03:49.438Z,80.3074
2023-05-01T07:04:51.437Z,80.3194
2023-05-01T07:05:53.417Z,80.3437
2023-05-01T07:06:55.363Z,80.3678
2023-05-01T07:08:01.550Z,80.3923
2023-05-01T07:08:58.844Z,80.4184
2023-05-01T07:10:00.816Z,80.4408
2023-05-01T07:11:02.827Z,80.4645
2023-05-01T07:12:04.683Z,80.4931
2023-05-01T07:13:06.750Z,80.5150
2023-05-01T07:14:08.619Z,80.5490
2023-05-01T07:15:10.630Z,80.5640
2023-05-01T07:16:12.628Z,80.5797
2023-05-01T07:17:14.623Z,80.5916
2023-05-01T07:18:16.435Z,80.6003
2023-05-01T07:19:18.357Z,80.5954
2023-05-01T07:20:20.326Z,80.5978
2023-05-01T07:21:22.588Z,80.5979
2023-05-01T07:22:24.761Z,80.5966
2023-05-01T07:23:26.696Z,80.5863
2023-05-01T07:24:28.606Z,80.5843
2023-05-01T07:25:30.465Z,80.5823
2023-05-01T07:26:32.549Z,80.6054
2023-05-01T07:27:34.408Z,80.6230
2023-05-01T07:28:36.245Z,80.6328
2023-05-01T07:29:38.098Z,80.6399
2023-05-01T07:30:40.198Z,80.6564
2023-05-01T07:31:42.190Z,80.6723
2023-05-01T07:32:44.170Z,80.6868
2023-05-01T07:33:46.253Z,80.7003
2023-05-01T07:34:48.109Z,80.7084
2023-05-01T07:35:50.009Z,80.7162
2023-05-01T07:36:51.937Z,80.7121
2023-05-01T07:37:53.733Z,80.7121
2023-05-01T07:38:55.553Z,80.7114
2023-05-01T07:39:57.578Z,80.7072
2023-05-01T07:40:57.648Z,80.7053
2023-05-01T07:41:59.514Z,80.7203
2023-05-01T07:43:01.373Z,80.7263
2023-05-01T07:44:03.235Z,80.7287
2023-05-01T07:45:05.144Z,80.7382
2023-05-01T07:46:07.087Z,80.7476
2023-05-01T07:47:09.519Z,80.7576
2023-05-01T07:48:11.499Z,80.7486
2023-05-01T07:49:13.426Z,80.7555
2023-05-01T07:50:15.311Z,80.7775
2023-05-01T07:51:17.138Z,80.8019
2023-05-01T07:52:18.999Z,80.8281
2023-05-01T07:53:20.884Z,80.8340
2023-05-01T07:54:22.762Z,80.8355
2023-05-01T07:55:24.653Z,80.8388
2023-05-01T07:56:26.501Z,80.8422
2023-05-01T07:57:28.478Z,80.8493
2023-05-01T07:58:30.361Z,80.9007
2023-05-01T07:59:32.267Z,80.9597
2023-05-01T08:00:34.185Z,81.0021
2023-05-01T08:01:36.051Z,81.0428
2023-05-01T08:02:38.028Z,81.0788
2023-05-01T08:03:40.123Z,81.1073
2023-05-01T08:04:42.098Z,81.1215
2023-05-01T08:05:43.944Z,81.1212
2023-05-01T08:06:45.934Z,81.1277
2023-05-01T08:07:47.936Z,81.1487
2023-05-01T08:08:49.839Z,81.1766
2023-05-01T08:09:51.698Z,81.2033
2023-05-01T08:10:53.614Z,81.2330
2023-05-01T08:11:55.475Z,81.2690
2023-05-01T08:12:57.315Z,81.2988
2023-05-01T08:13:59.165Z,81.3350
2023-05-01T08:15:01.035Z,81.3639
2023-05-01T08:16:02.975Z,81.3885
2023-05-01T08:17:04.913Z,81.4107
2023-05-01T08:18:06.819Z,81.4305
2023-05-01T08:19:08.900Z,81.4761
2023-05-01T08:20:10.696Z,81.5197
2023-05-01T08:21:12.587Z,81.5821
2023-05-01T08:22:14.387Z,81.6328
2023-05-01T08:23:16.259Z,81.6624
2023-05-01T08:24:18.021Z,81.6854
2023-05-01T08:25:19.851Z,81.6966
2023-05-01T08:26:22.704Z,81.7159
2023-05-01T08:27:22.245Z,81.7276
2023-05-01T08:28:24.169Z,81.7370
2023-05-01T08:29:26.058Z,81.7598
2023-05-01T08:30:27.896Z,81.7775
2023-05-01T08:31:29.838Z,81.7819
2023-05-01T08:32:31.914Z,81.8007
2023-05-01T08:33:33.871Z,81.8192
2023-05-01T08:34:35.701Z,81.8326
2023-05-01T08:35:37.574Z,81.8792
2023-05-01T08:36:39.483Z,81.9264
2023-05-01T08:37:41.563Z,81.9547
2023-05-01T08:38:43.459Z,81.9693
2023-05-01T08:39:45.308Z,81.9825
2023-05-01T08:40:47.244Z,81.9830
2023-05-01T08:41:49.169Z,81.9513
2023-05-01T08:42:50.983Z,81.9333
2023-05-01T08:43:51.294Z,81.9197
2023-05-01T08:44:53.198Z,81.9264
2023-05-01T08:45:55.090Z,81.9235
2023-05-01T08:46:57.129Z,81.9108
2023-05-01T08:47:59.216Z,81.8777
2023-05-01T08:49:01.240Z,81.8425
2023-05-01T08:50:03.189Z,81.7919
2023-05-01T08:51:05.117Z,81.7383
2023-05-01T08:52:07.061Z,81.6886
2023-05-01T08:53:08.958Z,81.6579
2023-05-01T08:54:10.801Z,81.6544
2023-05-01T08:55:12.720Z,81.6591
2023-05-01T08:56:14.708Z,81.6541
2023-05-01T08:57:16.587Z,81.6405
2023-05-01T08:58:18.461Z,81.6287
2023-05-01T08:59:20.448Z,81.6125
2023-05-01T09:00:22.458Z,81.5809
2023-05-01T09:01:24.453Z,81.5322
2023-05-01T09:02:26.400Z,81.4745
2023-05-01T09:03:28.435Z,81.4187
2023-05-01T09:04:28.230Z,81.3609
2023-05-01T09:05:30.269Z,81.3182
2023-05-01T09:06:32.454Z,81.3054
2023-05-01T09:07:34.497Z,81.3019
2023-05-01T09:08:36.505Z,81.3029
2023-05-01T09:09:38.410Z,81.3093
2023-05-01T09:10:40.281Z,81.3182
2023-05-01T09:11:42.248Z,81.3221
2023-05-01T09:12:44.097Z,81.3471
2023-05-01T09:13:46.092Z,81.3742
2023-05-01T09:14:48.099Z,81.3886
2023-05-01T09:15:49.957Z,81.3876
2023-05-01T09:16:51.909Z,81.3858
2023-05-01T09:17:53.874Z,81.3809
2023-05-01T09:18:55.853Z,81.3834
2023-05-01T09:19:58.127Z,81.3683
2023-05-01T09:20:58.178Z,81.3473
2023-05-01T09:22:00.113Z,81.3310
2023-05-01T09:23:01.987Z,81.3279
2023-05-01T09:24:03.874Z,81.3172
2023-05-01T09:25:06.737Z,81.3054
2023-05-01T09:26:06.003Z,81.2981
2023-05-01T09:27:07.910Z,81.2930
2023-05-01T09:28:09.787Z,81.2931
2023-05-01T09:29:11.656Z,81.2696
2023-05-01T09:30:13.486Z,81.2403
2023-05-01T09:31:15.409Z,81.2190
2023-05-01T09:32:17.637Z,81.2084
2023-05-01T09:33:19.858Z,81.2000
2023-05-01T09:34:21.919Z,81.1730
2023-05-01T09:35:23.827Z,81.1131
2023-05-01T09:36:25.673Z,81.0246
2023-05-01T09:37:27.633Z,80.9201
2023-05-01T09:38:29.535Z,80.8396
2023-05-01T09:39:31.586Z,80.7931
2023-05-01T09:40:33.522Z,80.7722
2023-05-01T09:41:35.530Z,80.7111
2023-05-01T09:42:37.450Z,80.6283
2023-05-01T09:43:39.394Z,80.5303
2023-05-01T09:44:41.325Z,80.4570
2023-05-01T09:45:43.265Z,80.4268
2023-05-01T09:46:45.194Z,80.3827
2023-05-01T09:47:47.286Z,80.3431
2023-05-01T09:48:49.440Z,80.3142
2023-05-01T09:49:51.595Z,80.2885
2023-05-01T09:50:53.741Z,80.2736
2023-05-01T09:51:55.873Z,80.2570
2023-05-01T09:52:58.040Z,80.2349
2023-05-01T09:54:00.250Z,80.1953
2023-05-01T09:55:02.415Z,80.1432
2023-05-01T09:56:04.589Z,80.0388
2023-05-01T09:57:06.774Z,79.8856
2023-05-01T09:58:08.822Z,79.7757
2023-05-01T09:59:10.893Z,79.6974
2023-05-01T10:00:12.811Z,79.5562
2023-05-01T10:01:14.786Z,79.3482
2023-05-01T10:02:17.108Z,79.1328
2023-05-01T10:03:19.248Z,78.9474
2023-05-01T10:04:21.380Z,78.8831
2023-05-01T10:05:23.378Z,78.8690
2023-05-01T10:06:25.559Z,78.8437
2023-05-01T10:07:27.667Z,78.7816
2023-05-01T10:08:29.841Z,78.7695
2023-05-01T10:09:31.836Z,78.7459
2023-05-01T10:10:33.816Z,78.6544
2023-05-01T10:11:35.743Z,78.4436
2023-05-01T10:12:37.706Z,78.3124
2023-05-01T10:13:39.715Z,78.2481
2023-05-01T10:14:41.674Z,78.2142
2023-05-01T10:15:43.547Z,78.1889
2023-05-01T10:16:45.571Z,78.1441
2023-05-01T10:17:47.548Z,78.0833
2023-05-01T10:18:49.582Z,77.9994
2023-05-01T10:19:51.675Z,77.8874
2023-05-01T10:20:53.589Z,77.7939
2023-05-01T10:21:55.594Z,77.7450
2023-05-01T10:22:56.103Z,77.6478
2023-05-01T10:23:58.120Z,77.3829
2023-05-01T10:25:00.002Z,77.0685
2023-05-01T10:26:03.025Z,76.8444
2023-05-01T10:27:02.206Z,76.5913
2023-05-01T10:28:04.113Z,76.4326
2023-05-01T10:29:05.972Z,76.2965
2023-05-01T10:30:07.953Z,76.1563
2023-05-01T10:31:09.863Z,75.9359
2023-05-01T10:32:11.919Z,75.7025
2023-05-01T10:33:13.881Z,75.6168
2023-05-01T10:34:15.987Z,75.6889
2023-05-01T10:35:17.854Z,75.7316
2023-05-01T10:36:19.667Z,75.6520
2023-05-01T10:37:21.507Z,75.3067
2023-05-01T10:38:23.321Z,75.1469
2023-05-01T10:39:25.108Z,75.0812
2023-05-01T10:40:26.975Z,74.9766
2023-05-01T10:41:28.754Z,74.8309
2023-05-01T10:42:30.592Z,74.6491
2023-05-01T10:43:32.456Z,74.0155
2023-05-01T10:44:34.187Z,73.6587
2023-05-01T10:45:36.030Z,73.1883
2023-05-01T10:46:37.800Z,73.0969
2023-05-01T10:47:39.933Z,72.9643
2023-05-01T10:48:41.619Z,72.8153
2023-05-01T10:49:43.429Z,72.4419
2023-05-01T10:50:45.186Z,72.4035
2023-05-01T10:51:46.899Z,72.4331
2023-05-01T10:52:48.745Z,72.1160
2023-05-01T10:53:50.484Z,71.8916
2023-05-01T10:54:52.202Z,71.9457
2023-05-01T10:55:53.949Z,71.9211
2023-05-01T10:56:55.997Z,71.9106
2023-05-01T10:57:57.993Z,71.8081
2023-05-01T10:58:59.753Z,71.7355
2023-05-01T11:00:01.435Z,71.5732
2023-05-01T11:01:03.169Z,71.3458
2023-05-01T11:02:04.947Z,71.2668
2023-05-01T11:03:07.850Z,71.2201
2023-05-01T11:04:07.049Z,71.0000
2023-05-01T11:05:08.814Z,70.6814
2023-05-01T11:06:10.674Z,70.4854
2023-05-01T11:07:12.758Z,70.4499
2023-05-01T11:08:14.636Z,70.3679
2023-05-01T11:09:16.452Z,70.1954
2023-05-01T11:10:18.171Z,70.0885
2023-05-01T11:11:20.002Z,69.9678
2023-05-01T11:12:21.816Z,70.0666
2023-05-01T11:13:23.645Z,69.9658
2023-05-01T11:14:25.394Z,69.9432
2023-05-01T11:15:27.187Z,69.7349
2023-05-01T11:16:29.026Z,69.5092
2023-05-01T11:17:33.270Z,69.5303
2023-05-01T11:18:34.482Z,69.7352
2023-05-01T11:19:36.583Z,69.8869
2023-05-01T11:20:38.603Z,69.9715
2023-05-01T11:21:40.672Z,70.0698
2023-05-01T11:22:42.617Z,70.1699
2023-05-01T11:23:44.490Z,70.2756
2023-05-01T11:24:46.373Z,70.3613
2023-05-01T11:25:48.336Z,70.4784
2023-05-01T11:26:50.349Z,70.5393
2023-05-01T11:27:52.680Z,70.4526
2023-05-01T11:28:54.998Z,70.4403
2023-05-01T11:29:57.309Z,70.5467
2023-05-01T11:30:59.602Z,70.6825
2023-05-01T11:32:01.926Z,70.7996
2023-05-01T11:33:04.199Z,70.9153
2023-05-01T11:34:06.570Z,71.0617
2023-05-01T11:35:08.793Z,71.2002
2023-05-01T11:36:11.205Z,71.3278
2023-05-01T11:37:13.560Z,71.4267
2023-05-01T11:38:15.749Z,71.5490
2023-05-01T11:39:17.950Z,71.6784
2023-05-01T11:40:20.033Z,71.8075
2023-05-01T11:41:22.233Z,71.8861
2023-05-01T11:42:24.479Z,71.8818
2023-05-01T11:43:26.482Z,71.6601
2023-05-01T11:44:28.569Z,71.3540
2023-05-01T11:45:30.838Z,71.3332
2023-05-01T11:46:33.163Z,71.4167
2023-05-01T11:47:35.638Z,71.5536
2023-05-01T11:48:37.783Z,71.6374
2023-05-01T11:49:40.043Z,71.6364
2023-05-01T11:50:42.369Z,71.5989
2023-05-01T11:51:44.563Z,71.6414
2023-05-01T11:52:46.729Z,71.6856
2023-05-01T11:53:48.883Z,71.6535
2023-05-01T11:54:51.000Z,71.6461
2023-05-01T11:55:53.116Z,71.6884
2023-05-01T11:56:55.194Z,71.7457
2023-05-01T11:57:57.478Z,71.7162
2023-05-01T11:58:59.678Z,71.5689
2023-05-01T12:00:02.018Z,71.5754
2023-05-01T12:01:04.139Z,71.6272
2023-05-01T12:02:06.132Z,71.4206
2023-05-01T12:03:08.605Z,71.0866
2023-05-01T12:04:09.121Z,70.8865
2023-05-01T12:05:11.409Z,70.6393
2023-05-01T12:06:13.558Z,70.5921
2023-05-01T12:07:15.760Z,70.6302
2023-05-01T12:08:17.878Z,70.6287
2023-05-01T12:09:19.970Z,70.7157
2023-05-01T12:10:20.424Z,70.6917
2023-05-01T12:11:22.504Z,70.6078
2023-05-01T12:12:24.664Z,70.6265
2023-05-01T12:13:27.048Z,70.6178
2023-05-01T12:14:29.303Z,70.6346
2023-05-01T12:15:31.221Z,70.6518
2023-05-01T12:16:33.231Z,70.6826
2023-05-01T12:17:34.983Z,70.5143
2023-05-01T12:18:36.809Z,70.3551
2023-05-01T12:19:38.669Z,70.1737
2023-05-01T12:20:40.581Z,70.1493
2023-05-01T12:21:42.363Z,70.1980
2023-05-01T12:22:44.275Z,70.1868
2023-05-01T12:23:46.278Z,70.1698
2023-05-01T12:24:48.275Z,70.1645
2023-05-01T12:25:50.265Z,70.1358
2023-05-01T12:26:52.056Z,70.1826
2023-05-01T12:27:53.874Z,70.2158
2023-05-01T12:28:55.605Z,70.2384